Time;durP1;ratioP1;P1;durP2;ratioP2;P2;SDS_P1;SDS_P2;PMS_P1;PMS_P2;Temp;Humidity;BMP_temperature;BMP_pressure;BME280_temperature;BME280_humidity;BME280_pressure;Samples;Min_cycle;Max_cycle;Signal;HPM_P1;HPM_P2
2022/09/17 00:02:24;;;;;;;10.00;8.57;;;;;;;14.56;73.40;98735.03;5092031;28;20135;-76
2022/09/17 00:04:50;;;;;;;13.05;8.85;;;;;;;14.60;73.52;98728.31;5092516;28;20048;-77
2022/09/17 00:07:17;;;;;;;10.38;9.10;;;;;;;14.53;73.41;98714.69;5091727;28;20044;-77
2022/09/17 00:09:43;;;;;;;14.32;9.27;;;;;;;14.60;73.31;98728.31;5075016;28;20040;-78
2022/09/17 00:12:09;;;;;;;11.18;8.15;;;;;;;14.52;74.06;98726.44;5092439;28;20048;-77
2022/09/17 00:14:35;;;;;;;10.00;8.70;;;;;;;14.63;73.76;98724.44;5091910;28;20048;-77
2022/09/17 00:17:01;;;;;;;13.18;8.23;;;;;;;14.68;73.85;98722.97;5075776;28;20040;-76
2022/09/17 00:19:27;;;;;;;10.02;8.93;;;;;;;14.62;73.88;98715.53;5075056;28;20047;-76
2022/09/17 00:21:53;;;;;;;15.55;9.57;;;;;;;14.57;74.02;98723.28;5075384;28;20039;-75
2022/09/17 00:24:19;;;;;;;14.25;8.82;;;;;;;14.54;74.06;98719.03;5092225;28;20046;-76
2022/09/17 00:26:46;;;;;;;13.32;8.75;;;;;;;14.58;73.92;98719.56;5075011;28;20040;-76
2022/09/17 00:29:13;;;;;;;9.40;8.38;;;;;;;14.65;73.87;98720.59;5091621;28;20035;-76
2022/09/17 00:31:39;;;;;;;10.63;8.80;;;;;;;14.61;74.30;98713.88;5093530;28;20093;-75
2022/09/17 00:34:05;;;;;;;11.50;9.32;;;;;;;14.54;74.35;98702.06;5092646;28;20044;-77
2022/09/17 00:36:35;;;;;;;13.00;8.48;;;;;;;14.59;74.44;98705.09;5058343;28;20089;-76
2022/09/17 00:39:01;;;;;;;12.68;9.30;;;;;;;14.67;74.27;98717.72;5091824;28;20039;-76
2022/09/17 00:41:30;;;;;;;13.60;8.90;;;;;;;14.71;74.07;98711.88;5093009;28;20044;-77
2022/09/17 00:43:59;;;;;;;10.10;9.02;;;;;;;14.69;74.15;98711.19;5071646;28;20033;-77
2022/09/17 00:46:30;;;;;;;17.00;9.38;;;;;;;14.72;74.12;98710.88;5072857;28;20050;-76
2022/09/17 00:49:00;;;;;;;13.23;9.40;;;;;;;14.65;73.88;98709.84;5072775;28;20079;-76
2022/09/17 00:51:34;;;;;;;13.90;9.32;;;;;;;14.71;74.31;98719.94;5055015;28;20048;-76
2022/09/17 00:54:02;;;;;;;14.70;8.85;;;;;;;14.61;74.23;98705.78;5071226;28;20062;-77
2022/09/17 00:56:33;;;;;;;10.40;9.07;;;;;;;14.70;74.56;98699.41;5071448;28;20037;-76
2022/09/17 00:59:00;;;;;;;9.93;8.80;;;;;;;14.78;74.20;98710.22;5071602;28;20063;-75
2022/09/17 01:01:27;;;;;;;10.90;9.18;;;;;;;14.79;74.16;98701.13;5054506;28;20060;-76
2022/09/17 01:03:52;;;;;;;11.45;8.85;;;;;;;14.81;74.08;98696.41;5071434;28;20040;-76
2022/09/17 01:06:18;;;;;;;12.93;10.05;;;;;;;14.87;74.22;98707.53;5038269;28;20086;-76
2022/09/17 01:09:12;;;;;;;11.20;9.63;;;;;;;14.81;74.35;98712.56;5071106;28;20044;-76
2022/09/17 01:11:44;;;;;;;16.00;8.98;;;;;;;14.88;74.32;98709.22;5054772;28;20045;-77
2022/09/17 01:14:30;;;;;;;10.27;9.18;;;;;;;14.95;74.66;98699.47;5054592;28;20047;-77
2022/09/17 01:17:15;;;;;;;13.30;9.77;;;;;;;14.97;74.67;98697.44;5037915;28;20044;-77
2022/09/17 01:19:59;;;;;;;14.15;10.05;;;;;;;14.98;74.48;98696.44;5072688;28;20052;-76
2022/09/17 01:22:30;;;;;;;12.02;10.38;;;;;;;15.02;74.51;98695.94;5072672;28;20051;-76
2022/09/17 01:25:53;;;;;;;14.68;10.38;;;;;;;15.06;74.53;98693.75;5071302;28;20053;-76
2022/09/17 01:28:33;;;;;;;12.68;10.43;;;;;;;15.02;74.42;98687.03;5073725;28;20036;-76
2022/09/17 01:31:37;;;;;;;12.30;10.38;;;;;;;15.00;74.88;98684.50;5073401;28;20174;-77
2022/09/17 01:34:30;;;;;;;15.50;11.38;;;;;;;14.87;75.57;98683.31;5011126;28;20042;-76
2022/09/17 01:37:25;;;;;;;17.85;11.27;;;;;;;14.91;75.45;98682.81;5069137;28;20510;-77
2022/09/17 01:40:02;;;;;;;16.63;10.98;;;;;;;15.02;75.55;98687.03;5054477;28;20087;-76
2022/09/17 01:42:35;;;;;;;12.25;10.55;;;;;;;14.97;75.85;98692.06;5071390;28;20191;-76
2022/09/17 01:45:16;;;;;;;16.80;11.82;;;;;;;15.00;75.76;98691.72;5055873;28;20511;-76
2022/09/17 01:47:42;;;;;;;18.30;10.93;;;;;;;15.03;75.83;98694.09;5058054;28;20044;-77
2022/09/17 01:50:16;;;;;;;12.52;11.02;;;;;;;14.95;76.24;98696.78;5075634;28;20041;-77
2022/09/17 01:52:44;;;;;;;13.40;11.52;;;;;;;15.03;76.08;98691.41;5057428;28;20056;-77
2022/09/17 01:55:14;;;;;;;13.75;10.57;;;;;;;15.04;75.92;98693.06;5074555;28;20049;-77
2022/09/17 01:57:55;;;;;;;13.02;10.75;;;;;;;15.04;76.32;98695.75;5074349;28;20044;-76
2022/09/17 02:00:21;;;;;;;12.63;10.60;;;;;;;15.08;76.38;98694.41;5074395;28;20040;-76
2022/09/17 02:02:50;;;;;;;13.70;11.88;;;;;;;15.10;76.63;98692.41;5074037;28;20174;-76
2022/09/17 02:05:25;;;;;;;;;;;;;;;15.09;77.10;98695.28;5074195;28;20086;-76
2022/09/17 02:07:56;;;;;;;15.32;10.32;;;;;;;15.12;76.96;98698.50;5040594;28;19920;-76
2022/09/17 02:10:30;;;;;;;12.02;10.57;;;;;;;15.19;76.80;98688.72;5057270;28;20043;-76
2022/09/17 02:13:04;;;;;;;11.77;9.90;;;;;;;15.24;76.61;98686.38;5075253;28;20040;-76
2022/09/17 02:15:38;;;;;;;17.38;10.60;;;;;;;15.24;76.37;98677.47;5074308;28;20055;-76
2022/09/17 02:18:42;;;;;;;11.55;10.35;;;;;;;15.40;76.71;98693.59;5073966;28;20063;-76
2022/09/17 02:21:17;;;;;;;12.68;10.15;;;;;;;15.44;76.43;98677.94;5077639;28;20056;-76
2022/09/17 02:23:57;;;;;;;11.40;10.05;;;;;;;15.50;76.23;98683.50;5075841;28;20083;-77
2022/09/17 02:26:25;;;;;;;12.50;10.10;;;;;;;15.51;76.07;98677.09;5060999;28;20074;-76
2022/09/17 02:29:05;;;;;;;14.02;10.63;;;;;;;15.61;76.17;98684.13;5094195;28;20035;-77
2022/09/17 02:31:31;;;;;;;10.73;9.63;;;;;;;15.60;76.08;98677.91;5077091;28;20047;-76
2022/09/17 02:34:01;;;;;;;14.40;10.60;;;;;;;15.69;76.10;98687.72;5093972;28;20127;-77
2022/09/17 02:36:30;;;;;;;12.85;11.57;;;;;;;15.71;76.11;98680.28;5094234;28;20039;-76
2022/09/17 02:39:00;;;;;;;14.00;11.48;;;;;;;15.72;76.11;98684.69;5076997;28;20044;-76
2022/09/17 02:41:44;;;;;;;;;;;;;;;15.70;75.98;98683.16;5094595;28;20051;-76
2022/09/17 02:44:41;;;;;;;17.55;12.80;;;;;;;15.73;76.04;98686.34;5077022;28;20413;-76
2022/09/17 02:47:36;;;;;;;16.92;12.82;;;;;;;15.70;76.29;98673.22;5094782;28;20046;-76
2022/09/17 02:50:23;;;;;;;16.98;14.90;;;;;;;15.67;76.69;98684.31;5076795;28;20048;-76
2022/09/17 02:53:00;;;;;;;16.35;14.60;;;;;;;15.75;76.59;98687.00;5093343;28;20475;-78
2022/09/17 02:55:37;;;;;;;19.33;14.68;;;;;;;15.91;76.36;98683.44;5059730;28;20055;-77
2022/09/17 02:58:25;;;;;;;19.30;15.15;;;;;;;16.00;76.56;98679.69;5076435;28;20552;-76
2022/09/17 03:00:54;;;;;;;19.42;15.23;;;;;;;15.98;76.28;98688.97;5093481;28;20051;-76
2022/09/17 03:03:28;;;;;;;18.63;15.65;;;;;;;15.91;76.77;98687.97;5093069;28;20499;-77
2022/09/17 03:05:55;;;;;;;20.92;15.75;;;;;;;15.94;76.55;98688.47;5059765;28;20055;-77
2022/09/17 03:08:28;;;;;;;22.08;15.55;;;;;;;15.94;76.40;98684.94;5076288;28;20051;-77
2022/09/17 03:10:54;;;;;;;23.38;16.70;;;;;;;15.98;76.76;98686.25;5093171;28;20170;-77
2022/09/17 03:13:19;;;;;;;21.42;15.45;;;;;;;15.98;77.13;98686.25;5076276;28;20130;-76
2022/09/17 03:15:45;;;;;;;18.67;15.30;;;;;;;16.08;77.10;98681.53;5093168;28;20113;-76
2022/09/17 03:18:11;;;;;;;19.48;13.75;;;;;;;16.19;76.84;98678.44;5093272;28;20044;-77
2022/09/17 03:20:37;;;;;;;17.25;14.40;;;;;;;16.22;77.16;98672.72;5094403;28;20127;-76
2022/09/17 03:23:03;;;;;;;12.43;11.13;;;;;;;16.24;76.63;98676.06;5059518;28;20081;-77
2022/09/17 03:25:28;;;;;;;14.15;12.63;;;;;;;16.19;76.79;98674.91;5093159;28;20105;-78
2022/09/17 03:27:55;;;;;;;13.30;10.70;;;;;;;16.17;76.83;98676.94;5093771;28;20044;-78
2022/09/17 03:30:21;;;;;;;15.50;12.95;;;;;;;16.11;76.93;98675.78;5075814;28;20227;-78
2022/09/17 03:32:47;;;;;;;16.48;13.45;;;;;;;16.09;77.19;98672.41;5075806;28;20040;-78
2022/09/17 03:35:13;;;;;;;19.10;15.48;;;;;;;16.15;76.89;98677.13;5075733;28;20075;-77
2022/09/17 03:37:39;;;;;;;24.42;18.80;;;;;;;16.08;77.08;98668.03;5093825;28;20055;-78
2022/09/17 03:40:06;;;;;;;31.48;22.58;;;;;;;16.05;77.79;98678.34;5093100;28;20043;-77
2022/09/17 03:42:31;;;;;;;36.55;24.10;;;;;;;15.99;78.06;98682.59;5075638;28;20101;-77
2022/09/17 03:44:57;;;;;;;37.45;26.08;;;;;;;16.10;77.58;98670.56;5092679;28;20035;-78
2022/09/17 03:47:23;;;;;;;37.63;25.73;;;;;;;16.17;77.75;98674.25;5075596;28;20044;-78
2022/09/17 03:49:51;;;;;;;35.60;25.33;;;;;;;16.17;77.74;98669.72;5059243;28;20040;-78
2022/09/17 03:52:17;;;;;;;31.95;22.73;;;;;;;16.20;78.21;98674.72;5075238;28;20120;-81
2022/09/17 03:54:43;;;;;;;33.63;22.08;;;;;;;16.16;78.00;98677.94;5092438;28;20058;-80
2022/09/17 03:57:09;;;;;;;29.63;20.40;;;;;;;16.00;78.26;98670.78;5091610;28;20498;-81
2022/09/17 03:59:35;;;;;;;29.02;21.02;;;;;;;16.03;78.32;98667.75;5075057;28;20032;-87
2022/09/17 04:02:00;;;;;;;24.50;18.83;;;;;;;16.09;78.01;98671.56;5075296;28;20044;-81
2022/09/17 04:04:26;;;;;;;27.33;19.38;;;;;;;16.10;78.09;98668.72;5093230;28;20407;-86
2022/09/17 04:06:53;;;;;;;21.95;18.10;;;;;;;16.12;78.20;98672.06;5058272;28;20040;-77
2022/09/17 04:09:19;;;;;;;28.77;18.58;;;;;;;16.10;78.74;98673.25;5092997;28;20040;-80
2022/09/17 04:11:45;;;;;;;26.60;18.98;;;;;;;16.16;78.83;98678.78;5058455;28;20092;-79
2022/09/17 04:14:11;;;;;;;26.42;18.85;;;;;;;16.24;78.60;98670.66;5093576;28;20118;-78
2022/09/17 04:16:37;;;;;;;22.58;17.50;;;;;;;16.21;78.59;98681.81;5092048;28;20044;-79
2022/09/17 04:19:02;;;;;;;26.58;18.13;;;;;;;16.17;78.59;98672.41;5091256;28;20517;-79
2022/09/17 04:21:28;;;;;;;21.95;17.25;;;;;;;16.17;78.74;98669.72;5080126;28;20055;-85
2022/09/17 04:23:54;;;;;;;25.00;16.80;;;;;;;16.29;78.85;98672.03;5072583;28;20135;-80
2022/09/17 04:26:20;;;;;;;20.35;15.35;;;;;;;16.24;79.45;98670.66;5094667;28;20414;-81
2022/09/17 04:28:46;;;;;;;20.60;13.18;;;;;;;16.24;79.16;98667.97;5092587;28;20043;-80
2022/09/17 04:31:14;;;;;;;15.82;12.30;;;;;;;16.31;79.35;98678.06;5075259;28;20105;-79
2022/09/17 04:33:40;;;;;;;14.02;11.15;;;;;;;16.30;78.79;98661.03;5058474;28;20105;-88
2022/09/17 04:36:06;;;;;;;12.43;9.95;;;;;;;16.39;78.86;98673.47;5074647;28;20043;-75
2022/09/17 04:38:32;;;;;;;11.60;10.18;;;;;;;16.44;78.98;98678.34;5092606;28;20499;-77
2022/09/17 04:40:59;;;;;;;8.90;7.90;;;;;;;16.48;78.92;98669.72;5057937;28;20495;-76
2022/09/17 04:43:25;;;;;;;10.63;8.80;;;;;;;16.54;78.54;98670.03;5074290;28;20088;-76
2022/09/17 04:45:51;;;;;;;10.82;9.30;;;;;;;16.41;78.77;98670.59;5091222;28;20410;-77
2022/09/17 04:48:17;;;;;;;11.15;9.18;;;;;;;16.43;78.77;98663.16;5073738;28;20487;-77
2022/09/17 04:50:43;;;;;;;9.40;8.43;;;;;;;16.59;78.65;98673.03;5090915;28;20065;-76
2022/09/17 04:53:09;;;;;;;13.10;10.40;;;;;;;16.60;78.40;98670.16;5092253;28;20048;-75
2022/09/17 04:55:34;;;;;;;14.02;9.60;;;;;;;16.56;78.34;98668.84;5092373;28;20514;-80
2022/09/17 04:58:00;;;;;;;9.48;8.32;;;;;;;16.61;78.34;98669.13;5090746;28;20052;-82
2022/09/17 05:00:26;;;;;;;10.30;9.05;;;;;;;16.65;78.40;98667.75;5089372;28;20097;-80
2022/09/17 05:02:54;;;;;;;9.50;7.40;;;;;;;16.67;78.02;98660.34;5078511;28;20040;-79
2022/09/17 05:05:21;;;;;;;8.60;6.90;;;;;;;16.66;78.36;98674.84;5070962;28;20048;-80
2022/09/17 05:07:47;;;;;;;8.27;5.80;;;;;;;16.66;78.44;98671.28;5071129;28;20087;-78
2022/09/17 05:10:15;;;;;;;6.80;5.18;;;;;;;16.66;78.21;98668.59;5070770;28;20040;-82
2022/09/17 05:12:40;;;;;;;7.57;5.30;;;;;;;16.71;77.93;98672.44;5071827;28;20040;-85
2022/09/17 05:15:07;;;;;;;9.07;5.63;;;;;;;16.56;78.42;98663.44;5071608;28;20418;-80
2022/09/17 05:17:33;;;;;;;6.95;5.90;;;;;;;16.55;78.13;98669.00;5071228;28;20106;-79
2022/09/17 05:19:59;;;;;;;9.43;6.38;;;;;;;16.54;78.52;98675.41;5091245;28;20052;-78
2022/09/17 05:22:24;;;;;;;8.55;6.90;;;;;;;16.56;78.62;98676.94;5074699;28;20041;-77
2022/09/17 05:24:50;;;;;;;7.32;5.82;;;;;;;16.56;78.53;98674.22;5075625;28;20483;-77
2022/09/17 05:27:16;;;;;;;6.72;5.72;;;;;;;16.56;79.01;98660.75;5041151;28;20037;-76
2022/09/17 05:29:44;;;;;;;6.25;5.32;;;;;;;16.70;78.88;98665.38;5091091;28;20106;-78
2022/09/17 05:32:09;;;;;;;5.72;4.75;;;;;;;16.71;78.77;98672.44;5075108;28;20084;-77
2022/09/17 05:34:35;;;;;;;6.32;4.57;;;;;;;16.69;78.44;98663.69;5091263;28;20517;-77
2022/09/17 05:37:01;;;;;;;4.28;3.88;;;;;;;16.71;78.63;98675.16;5074283;28;20036;-82
2022/09/17 05:39:27;;;;;;;5.25;4.07;;;;;;;16.73;78.74;98669.56;5063239;28;20043;-77
2022/09/17 05:41:54;;;;;;;4.80;4.40;;;;;;;16.77;78.62;98670.91;5095849;28;20471;-77
2022/09/17 05:44:20;;;;;;;4.63;4.22;;;;;;;16.72;78.68;98674.13;5094837;28;20076;-78
2022/09/17 05:46:47;;;;;;;4.38;4.00;;;;;;;16.73;78.98;98659.63;5078132;28;20043;-82
2022/09/17 05:49:14;;;;;;;5.18;4.57;;;;;;;16.79;78.70;98673.44;5077129;28;20059;-76
2022/09/17 05:51:41;;;;;;;4.97;4.57;;;;;;;16.83;78.56;98663.97;5095606;28;20410;-86
2022/09/17 05:54:07;;;;;;;4.85;4.45;;;;;;;16.83;78.65;98669.38;5094223;28;20060;-79
2022/09/17 05:56:33;;;;;;;4.95;4.50;;;;;;;16.80;78.58;98669.72;5095684;28;20074;-82
2022/09/17 05:58:59;;;;;;;5.95;5.38;;;;;;;16.67;79.16;98671.13;5095766;28;20470;-84
2022/09/17 06:01:25;;;;;;;4.90;4.50;;;;;;;16.73;78.99;98670.44;5077694;28;20119;-82
2022/09/17 06:03:51;;;;;;;5.28;4.47;;;;;;;16.83;79.20;98669.38;5095792;28;20051;-82
2022/09/17 06:06:17;;;;;;;5.18;4.78;;;;;;;16.71;79.39;98664.34;5095721;28;20032;-84
2022/09/17 06:08:43;;;;;;;5.18;4.68;;;;;;;16.74;79.13;98666.72;5096434;28;20049;-83
2022/09/17 06:11:09;;;;;;;5.85;4.90;;;;;;;16.83;79.24;98669.38;5078402;28;20100;-83
2022/09/17 06:13:35;;;;;;;8.20;5.55;;;;;;;16.93;78.97;98659.19;5094297;28;20115;-84
2022/09/17 06:16:01;;;;;;;7.40;6.28;;;;;;;16.91;78.71;98663.91;5077726;28;20044;-83
2022/09/17 06:18:29;;;;;;;8.02;7.15;;;;;;;16.93;78.74;98667.28;5093605;28;20051;-85
2022/09/17 06:20:56;;;;;;;8.20;7.40;;;;;;;16.97;78.78;98665.91;5093890;28;20036;-79
2022/09/17 06:23:23;;;;;;;10.93;7.53;;;;;;;16.96;78.77;98677.69;5094980;28;20197;-87
2022/09/17 06:25:55;;;;;;;8.90;8.00;;;;;;;16.95;78.40;98674.16;5093184;28;20040;-86
2022/09/17 06:28:21;;;;;;;9.07;8.18;;;;;;;16.85;79.00;98660.09;5094240;28;20040;-87
2022/09/17 06:30:47;;;;;;;8.60;7.65;;;;;;;16.90;78.90;98681.13;5094280;28;20508;-86
2022/09/17 06:33:14;;;;;;;10.45;8.57;;;;;;;16.73;79.32;98648.84;5076374;28;20132;-87
2022/09/17 06:35:41;;;;;;;16.88;8.52;;;;;;;16.77;79.64;98680.88;5060200;28;20043;-87
2022/09/17 06:38:07;;;;;;;8.02;7.32;;;;;;;16.66;80.19;98680.25;5094861;28;20076;-83
2022/09/17 06:40:33;;;;;;;8.55;7.55;;;;;;;16.86;79.74;98682.50;5076721;28;20067;-88
2022/09/17 06:42:59;;;;;;;8.35;7.65;;;;;;;16.82;79.87;98678.50;5095310;28;20051;-85
2022/09/17 06:45:27;;;;;;;10.85;7.88;;;;;;;16.95;79.89;98671.47;5078380;28;20499;-85
2022/09/17 06:47:52;;;;;;;9.98;8.35;;;;;;;16.92;79.77;98669.13;5096014;28;20051;-86
2022/09/17 06:50:19;;;;;;;9.93;7.57;;;;;;;17.02;79.11;98682.38;5094237;28;20032;-82
2022/09/17 06:52:49;;;;;;;9.80;8.15;;;;;;;17.21;79.66;98686.47;5094674;28;20484;-82
2022/09/17 06:55:15;;;;;;;9.02;8.20;;;;;;;17.37;79.52;98690.88;5077240;28;20507;-80
2022/09/17 06:57:41;;;;;;;10.45;8.90;;;;;;;17.30;79.28;98681.81;5094670;28;20069;-81
2022/09/17 07:00:08;;;;;;;9.95;8.88;;;;;;;17.33;79.11;98686.88;5075964;28;20044;-79
2022/09/17 07:02:34;;;;;;;10.65;9.52;;;;;;;17.33;78.38;98686.88;5058993;28;20055;-84
2022/09/17 07:05:01;;;;;;;12.00;9.48;;;;;;;17.38;78.11;98681.78;5092738;28;20426;-87
2022/09/17 07:07:29;;;;;;;11.32;10.20;;;;;;;17.28;77.96;98689.28;5092822;28;20048;-86
2022/09/17 07:09:54;;;;;;;10.75;9.82;;;;;;;17.18;78.21;98674.16;5093389;28;20521;-83
2022/09/17 07:12:21;;;;;;;12.80;11.60;;;;;;;17.14;78.96;98683.63;5090221;28;20044;-84
2022/09/17 07:14:48;;;;;;;13.85;12.45;;;;;;;17.19;78.59;98686.66;5089888;28;20060;-86
2022/09/17 07:17:16;;;;;;;13.52;12.23;;;;;;;17.17;79.10;98693.25;5059078;28;20495;-82
2022/09/17 07:19:45;;;;;;;14.85;13.40;;;;;;;17.19;79.26;98697.47;5068882;28;20532;-83
2022/09/17 07:22:12;;;;;;;14.98;13.48;;;;;;;17.17;79.71;98698.66;5092182;28;20123;-83
2022/09/17 07:24:38;;;;;;;16.25;14.55;;;;;;;17.15;79.50;98693.44;5075088;28;20044;-83
2022/09/17 07:27:06;;;;;;;17.33;15.57;;;;;;;17.07;79.92;98698.88;5057752;28;20509;-84
2022/09/17 07:29:32;;;;;;;17.25;15.55;;;;;;;17.05;79.95;98695.53;5090804;28;20046;-84
2022/09/17 07:31:58;;;;;;;18.95;16.95;;;;;;;17.09;79.95;98686.06;5091699;28;20040;-84
2022/09/17 07:34:26;;;;;;;20.98;18.58;;;;;;;17.11;80.13;98702.94;5071601;28;20059;-85
2022/09/17 07:36:52;;;;;;;20.30;18.20;;;;;;;17.17;80.17;98698.66;5090876;28;20643;-83
2022/09/17 07:39:18;;;;;;;22.13;19.92;;;;;;;17.25;80.16;98703.97;5091075;28;20282;-85
2022/09/17 07:41:44;;;;;;;24.63;19.98;;;;;;;17.27;79.66;98703.81;5074297;28;20035;-82
2022/09/17 07:44:09;;;;;;;23.60;21.10;;;;;;;17.30;79.94;98693.50;5090748;28;20044;-84
2022/09/17 07:46:35;;;;;;;24.02;20.17;;;;;;;17.38;79.76;98706.09;5092161;28;20044;-89
2022/09/17 07:49:01;;;;;;;24.15;21.10;;;;;;;17.51;79.25;98706.31;5088820;28;20411;-89
2022/09/17 07:51:27;;;;;;;26.23;20.08;;;;;;;17.40;79.05;98690.53;5070658;28;20185;-90
2022/09/17 07:53:56;;;;;;;23.98;19.95;;;;;;;17.37;78.76;98696.28;5057890;28;20044;-84
2022/09/17 07:56:23;;;;;;;24.80;19.15;;;;;;;17.50;79.19;98688.41;5091304;28;20040;-84
2022/09/17 07:58:49;;;;;;;21.17;18.27;;;;;;;17.68;78.71;98701.59;5058384;28;20414;-82
2022/09/17 08:01:16;;;;;;;21.20;18.15;;;;;;;17.63;77.95;98696.72;5092344;28;20043;-84
2022/09/17 08:03:46;;;;;;;19.67;17.67;;;;;;;17.67;77.73;98706.13;5083155;28;20048;-82
2022/09/17 08:06:16;;;;;;;20.05;17.70;;;;;;;17.69;77.87;98708.69;5054744;28;20529;-82
2022/09/17 08:08:45;;;;;;;18.73;16.80;;;;;;;17.67;77.91;98703.44;5038431;28;20043;-84
2022/09/17 08:11:14;;;;;;;21.38;17.80;;;;;;;17.63;78.43;98704.00;5057012;28;20130;-84
2022/09/17 08:13:40;;;;;;;21.63;17.10;;;;;;;17.64;78.09;98709.22;5074853;28;20102;-84
2022/09/17 08:16:11;;;;;;;18.08;16.27;;;;;;;17.56;78.51;98714.69;5093358;28;20483;-84
2022/09/17 08:18:38;;;;;;;16.40;14.68;;;;;;;17.56;78.60;98714.69;5075553;28;20036;-85
2022/09/17 08:21:06;;;;;;;15.93;13.50;;;;;;;17.61;78.30;98706.88;5075457;28;20523;-86
2022/09/17 08:23:37;;;;;;;13.80;12.40;;;;;;;17.56;78.64;98714.69;5075433;28;20047;-85
2022/09/17 08:26:06;;;;;;;16.45;12.57;;;;;;;17.53;78.64;98709.69;5093866;28;20085;-85
2022/09/17 08:28:31;;;;;;;14.70;12.57;;;;;;;17.61;78.47;98717.72;5093879;28;20130;-84
2022/09/17 08:31:02;;;;;;;16.38;14.32;;;;;;;17.64;78.75;98719.19;5092158;28;20040;-84
2022/09/17 08:33:33;;;;;;;17.48;15.57;;;;;;;17.68;78.86;98713.25;5076782;28;20047;-85
2022/09/17 08:35:59;;;;;;;16.65;14.98;;;;;;;17.60;78.83;98721.44;5076179;28;20046;-85
2022/09/17 08:38:32;;;;;;;15.95;14.32;;;;;;;17.51;78.27;98710.88;5075751;28;20069;-85
2022/09/17 08:41:21;;;;;;;16.83;15.02;;;;;;;17.47;79.13;98716.63;5090905;28;20036;-86
2022/09/17 08:44:03;;;;;;;15.73;12.40;;;;;;;17.38;79.62;98706.94;5072465;28;20122;-87
2022/09/17 08:46:58;;;;;;;13.23;11.57;;;;;;;17.39;79.29;98714.00;5038543;28;20447;-85
2022/09/17 08:49:36;;;;;;;10.95;9.85;;;;;;;17.42;79.88;98718.22;5071567;28;20496;-85
2022/09/17 08:52:20;;;;;;;10.98;9.88;;;;;;;17.40;79.46;98704.03;5088310;28;20051;-86
2022/09/17 08:55:23;;;;;;;13.20;11.73;;;;;;;17.53;79.79;98722.34;5077923;28;20083;-85
2022/09/17 08:58:16;;;;;;;13.20;11.90;;;;;;;17.48;79.35;98721.00;5084172;28;20052;-86
2022/09/17 09:00:54;;;;;;;14.73;11.90;;;;;;;17.37;79.82;98718.75;5099617;28;20384;-85
2022/09/17 09:03:54;;;;;;;13.68;12.38;;;;;;;17.34;80.13;98723.66;5099348;28;20062;-85
2022/09/17 09:06:27;;;;;;;16.85;13.95;;;;;;;17.39;80.28;98718.56;5065280;28;20486;-84
2022/09/17 09:09:04;;;;;;;16.38;14.68;;;;;;;17.40;80.25;98714.84;5087595;28;20056;-85
2022/09/17 09:11:31;;;;;;;19.17;16.48;;;;;;;17.45;80.41;98712.41;5061315;28;20546;-85
2022/09/17 09:14:11;;;;;;;19.20;16.13;;;;;;;17.42;80.44;98720.91;5079299;28;20068;-85
2022/09/17 09:16:43;;;;;;;18.80;15.05;;;;;;;17.44;79.76;98718.84;5078244;28;20040;-84
2022/09/17 09:19:29;;;;;;;15.02;12.90;;;;;;;17.45;80.09;98723.22;5095301;28;20036;-83
2022/09/17 09:22:02;;;;;;;13.50;11.55;;;;;;;17.39;79.92;98718.56;5077903;28;20040;-84
2022/09/17 09:24:44;;;;;;;12.93;10.85;;;;;;;17.28;80.08;98735.22;5078600;28;20564;-83
2022/09/17 09:27:18;;;;;;;12.20;11.00;;;;;;;17.26;80.03;98732.66;5062070;28;20044;-83
2022/09/17 09:30:08;;;;;;;14.93;10.93;;;;;;;17.21;80.48;98743.19;5079596;28;20041;-82
2022/09/17 09:32:52;;;;;;;13.02;10.05;;;;;;;17.23;80.66;98744.69;5078131;28;20097;-83
2022/09/17 09:35:27;;;;;;;11.32;10.13;;;;;;;17.22;80.05;98745.69;5079828;28;20047;-83
2022/09/17 09:38:00;;;;;;;10.10;9.10;;;;;;;17.23;79.94;98747.41;5094356;28;20522;-81
2022/09/17 09:40:39;;;;;;;9.80;8.90;;;;;;;17.24;80.23;98749.06;5060918;28;20139;-83
2022/09/17 09:43:41;;;;;;;;;;;;;;;17.11;79.92;98748.84;5077986;28;20048;-82
2022/09/17 09:46:26;;;;;;;8.85;7.95;;;;;;;17.05;80.84;98754.09;5076515;28;19920;-83
2022/09/17 09:49:17;;;;;;;11.10;10.00;;;;;;;17.03;80.92;98759.66;5059154;28;20121;-82
2022/09/17 09:52:16;;;;;;;11.00;10.00;;;;;;;17.02;80.90;98744.50;5078888;28;20052;-81
2022/09/17 09:54:54;;;;;;;11.95;10.88;;;;;;;17.02;80.98;98758.00;5060772;28;20520;-81
2022/09/17 09:57:33;;;;;;;12.27;11.15;;;;;;;17.02;81.01;98754.47;5060885;28;20052;-81
2022/09/17 10:00:27;;;;;;;13.95;11.60;;;;;;;17.06;80.63;98759.31;5077296;28;20049;-81
2022/09/17 10:03:05;;;;;;;9.82;8.93;;;;;;;17.05;80.62;98760.34;5078672;28;20076;-81
2022/09/17 10:05:31;;;;;;;11.93;9.43;;;;;;;17.10;80.14;98754.41;5076158;28;20073;-82
2022/09/17 10:07:57;;;;;;;9.98;8.98;;;;;;;17.07;80.18;98742.09;5075717;28;20074;-81
2022/09/17 10:10:23;;;;;;;9.35;8.45;;;;;;;17.13;79.66;98746.78;5057222;28;20036;-81
2022/09/17 10:13:04;;;;;;;9.70;8.70;;;;;;;17.28;79.38;98754.13;5074018;28;20511;-81
2022/09/17 10:15:30;;;;;;;9.13;8.23;;;;;;;17.34;79.08;98764.19;5041160;28;20045;-81
2022/09/17 10:18:15;;;;;;;8.70;7.95;;;;;;;17.31;78.60;98772.66;5057075;28;20037;-81
2022/09/17 10:20:58;;;;;;;9.48;8.55;;;;;;;17.32;78.36;98767.06;5073677;28;20056;-82
2022/09/17 10:23:37;;;;;;;9.25;8.27;;;;;;;17.33;78.24;98767.91;5074253;28;20086;-82
2022/09/17 10:26:03;;;;;;;9.00;8.20;;;;;;;17.30;78.51;98773.66;5040400;28;20150;-82
2022/09/17 10:28:32;;;;;;;9.50;8.60;;;;;;;17.25;78.30;98755.31;5057463;28;20036;-82
2022/09/17 10:31:09;;;;;;;11.57;9.48;;;;;;;17.30;78.03;98762.88;5073732;28;20048;-81
2022/09/17 10:33:50;;;;;;;11.48;9.10;;;;;;;17.29;78.70;98772.00;5056908;28;20044;-82
2022/09/17 10:36:33;;;;;;;11.20;10.13;;;;;;;17.22;78.67;98767.31;5040600;28;20495;-82
2022/09/17 10:39:25;;;;;;;14.07;11.05;;;;;;;17.14;78.75;98759.25;5090467;28;20127;-82
2022/09/17 10:42:03;;;;;;;12.93;11.63;;;;;;;17.13;79.21;98772.94;5074394;28;20070;-82
2022/09/17 10:44:34;;;;;;;14.00;12.60;;;;;;;17.05;79.25;98757.66;5057178;28;20039;-81
2022/09/17 10:47:05;;;;;;;14.80;13.40;;;;;;;16.96;79.61;98764.97;5056830;28;20048;-82
2022/09/17 10:49:34;;;;;;;15.90;14.40;;;;;;;16.99;79.85;98769.97;5073473;28;20067;-82
2022/09/17 10:52:11;;;;;;;15.93;14.43;;;;;;;16.93;79.89;98761.78;5073321;28;20484;-82
2022/09/17 10:54:52;;;;;;;15.60;14.13;;;;;;;17.01;80.07;98769.81;5057244;28;20186;-81
2022/09/17 10:57:36;;;;;;;16.15;14.55;;;;;;;17.07;79.59;98779.88;5056663;28;20055;-80
2022/09/17 11:00:14;;;;;;;16.00;14.50;;;;;;;16.97;80.14;98774.72;5039973;28;20063;-82
2022/09/17 11:02:59;;;;;;;16.80;15.20;;;;;;;16.98;79.85;98776.41;5073588;28;20136;-83
2022/09/17 11:05:40;;;;;;;17.27;15.57;;;;;;;16.91;80.06;98770.03;5075585;28;20265;-80
2022/09/17 11:08:15;;;;;;;17.05;15.25;;;;;;;17.00;80.31;98773.56;5057211;28;20062;-81
2022/09/17 11:11:02;;;;;;;20.73;16.58;;;;;;;17.18;80.37;98781.34;5056108;28;20045;-82
2022/09/17 11:13:49;;;;;;;17.40;15.65;;;;;;;17.18;79.74;98775.94;5089705;28;20460;-81
2022/09/17 11:16:58;;;;;;;16.58;14.98;;;;;;;17.15;79.15;98787.09;5072841;28;20134;-82
2022/09/17 11:19:49;;;;;;;17.27;15.30;;;;;;;17.19;79.29;98783.88;5075374;28;20037;-80
2022/09/17 11:22:52;;;;;;;15.88;14.10;;;;;;;17.21;78.88;98798.03;5073953;28;20048;-82
2022/09/17 11:25:24;;;;;;;15.23;13.73;;;;;;;17.20;79.28;98792.81;5075566;28;20518;-84
2022/09/17 11:28:08;;;;;;;16.45;14.85;;;;;;;17.25;79.10;98793.13;5072709;28;20468;-87
2022/09/17 11:31:00;;;;;;;15.80;14.20;;;;;;;17.26;79.14;98799.34;5072278;28;20041;-82
2022/09/17 11:33:38;;;;;;;15.38;13.73;;;;;;;17.24;78.58;98797.69;5074349;28;20433;-82
2022/09/17 11:36:12;;;;;;;16.50;14.80;;;;;;;17.24;79.25;98799.56;5039086;28;20078;-82
2022/09/17 11:38:44;;;;;;;17.48;15.77;;;;;;;17.15;79.16;98790.66;5072767;28;20143;-83
2022/09/17 11:41:15;;;;;;;18.85;15.65;;;;;;;17.16;79.50;98800.44;5072479;28;20080;-87
2022/09/17 11:43:46;;;;;;;20.60;16.25;;;;;;;17.12;79.16;98793.72;5055779;28;20143;-82
2022/09/17 11:46:19;;;;;;;20.27;17.17;;;;;;;17.19;78.75;98813.59;5072132;28;20106;-81